sensor_id;sensor_type;location;lat;lon;timestamp;temperature;humidity
45643;DHT22;31358;46.008;11.144;2023-04-25T00:01:11;10.30;95.10
45643;DHT22;31358;46.008;11.144;2023-04-25T00:03:39;10.10;95.90
45643;DHT22;31358;46.008;11.144;2023-04-25T00:06:05;9.80;96.40
45643;DHT22;31358;46.008;11.144;2023-04-25T00:08:32;9.70;96.30
45643;DHT22;31358;46.008;11.144;2023-04-25T00:10:58;9.90;96.20
45643;DHT22;31358;46.008;11.144;2023-04-25T00:13:24;10.00;96.00
45643;DHT22;31358;46.008;11.144;2023-04-25T00:15:51;9.80;96.30
45643;DHT22;31358;46.008;11.144;2023-04-25T00:18:17;9.80;96.50
45643;DHT22;31358;46.008;11.144;2023-04-25T00:20:43;9.90;96.40
45643;DHT22;31358;46.008;11.144;2023-04-25T00:23:13;9.90;96.30
45643;DHT22;31358;46.008;11.144;2023-04-25T00:25:44;9.70;96.80
45643;DHT22;31358;46.008;11.144;2023-04-25T00:28:10;9.50;97.30
45643;DHT22;31358;46.008;11.144;2023-04-25T00:30:36;9.30;97.80
45643;DHT22;31358;46.008;11.144;2023-04-25T00:33:02;9.30;97.60
45643;DHT22;31358;46.008;11.144;2023-04-25T00:35:27;9.50;96.90
45643;DHT22;31358;46.008;11.144;2023-04-25T00:37:54;9.40;97.20
45643;DHT22;31358;46.008;11.144;2023-04-25T00:40:20;9.40;97.20
45643;DHT22;31358;46.008;11.144;2023-04-25T00:42:47;9.30;97.20
45643;DHT22;31358;46.008;11.144;2023-04-25T00:45:13;9.30;97.20
45643;DHT22;31358;46.008;11.144;2023-04-25T00:47:42;9.30;97.10
45643;DHT22;31358;46.008;11.144;2023-04-25T00:50:09;9.50;96.80
45643;DHT22;31358;46.008;11.144;2023-04-25T00:52:35;9.60;96.50
45643;DHT22;31358;46.008;11.144;2023-04-25T00:55:01;9.60;96.20
45643;DHT22;31358;46.008;11.144;2023-04-25T00:57:27;9.60;96.20
45643;DHT22;31358;46.008;11.144;2023-04-25T00:59:54;9.50;96.40
45643;DHT22;31358;46.008;11.144;2023-04-25T01:02:20;9.50;96.50
45643;DHT22;31358;46.008;11.144;2023-04-25T01:04:47;9.70;96.10
45643;DHT22;31358;46.008;11.144;2023-04-25T01:07:14;9.40;96.70
45643;DHT22;31358;46.008;11.144;2023-04-25T01:09:41;9.30;97.20
45643;DHT22;31358;46.008;11.144;2023-04-25T01:12:06;9.40;96.70
45643;DHT22;31358;46.008;11.144;2023-04-25T01:14:32;9.50;96.60
45643;DHT22;31358;46.008;11.144;2023-04-25T01:16:59;9.40;96.80
45643;DHT22;31358;46.008;11.144;2023-04-25T01:19:25;9.50;96.60
45643;DHT22;31358;46.008;11.144;2023-04-25T01:21:51;9.60;97.00
45643;DHT22;31358;46.008;11.144;2023-04-25T01:24:17;9.90;95.90
45643;DHT22;31358;46.008;11.144;2023-04-25T01:26:43;10.30;95.30
45643;DHT22;31358;46.008;11.144;2023-04-25T01:29:15;10.40;95.30
45643;DHT22;31358;46.008;11.144;2023-04-25T01:31:41;10.30;95.30
45643;DHT22;31358;46.008;11.144;2023-04-25T01:34:08;10.30;95.20
45643;DHT22;31358;46.008;11.144;2023-04-25T01:36:34;10.30;95.20
45643;DHT22;31358;46.008;11.144;2023-04-25T01:39:00;10.40;95.30
45643;DHT22;31358;46.008;11.144;2023-04-25T01:41:26;10.40;95.30
45643;DHT22;31358;46.008;11.144;2023-04-25T01:43:52;10.50;95.20
45643;DHT22;31358;46.008;11.144;2023-04-25T01:46:18;10.60;95.50
45643;DHT22;31358;46.008;11.144;2023-04-25T01:48:44;10.50;95.60
45643;DHT22;31358;46.008;11.144;2023-04-25T01:51:10;10.50;96.10
45643;DHT22;31358;46.008;11.144;2023-04-25T01:53:37;10.50;96.20
45643;DHT22;31358;46.008;11.144;2023-04-25T01:56:03;10.50;96.20
45643;DHT22;31358;46.008;11.144;2023-04-25T01:58:29;10.40;96.80
45643;DHT22;31358;46.008;11.144;2023-04-25T02:00:55;10.40;96.60
45643;DHT22;31358;46.008;11.144;2023-04-25T02:03:21;10.50;96.80
45643;DHT22;31358;46.008;11.144;2023-04-25T02:05:46;10.40;97.20
45643;DHT22;31358;46.008;11.144;2023-04-25T02:08:13;10.10;98.10
45643;DHT22;31358;46.008;11.144;2023-04-25T02:10:39;9.90;98.70
45643;DHT22;31358;46.008;11.144;2023-04-25T02:13:05;9.90;99.30
45643;DHT22;31358;46.008;11.144;2023-04-25T02:15:31;10.10;97.60
45643;DHT22;31358;46.008;11.144;2023-04-25T02:17:56;10.20;97.40
45643;DHT22;31358;46.008;11.144;2023-04-25T02:20:23;10.40;97.10
45643;DHT22;31358;46.008;11.144;2023-04-25T02:22:49;10.40;97.20
45643;DHT22;31358;46.008;11.144;2023-04-25T02:25:17;10.30;98.30
45643;DHT22;31358;46.008;11.144;2023-04-25T02:27:43;10.20;99.60
45643;DHT22;31358;46.008;11.144;2023-04-25T02:30:09;10.00;99.30
45643;DHT22;31358;46.008;11.144;2023-04-25T02:32:34;9.90;99.20
45643;DHT22;31358;46.008;11.144;2023-04-25T02:35:01;10.00;98.70
45643;DHT22;31358;46.008;11.144;2023-04-25T02:37:34;10.10;98.80
45643;DHT22;31358;46.008;11.144;2023-04-25T02:40:00;10.00;98.80
45643;DHT22;31358;46.008;11.144;2023-04-25T02:42:26;10.00;99.10
45643;DHT22;31358;46.008;11.144;2023-04-25T02:44:52;10.00;99.00
45643;DHT22;31358;46.008;11.144;2023-04-25T02:47:18;10.10;98.20
45643;DHT22;31358;46.008;11.144;2023-04-25T02:49:43;10.10;98.10
45643;DHT22;31358;46.008;11.144;2023-04-25T02:52:10;10.00;99.20
45643;DHT22;31358;46.008;11.144;2023-04-25T02:54:36;9.90;99.90
45643;DHT22;31358;46.008;11.144;2023-04-25T02:57:02;9.90;99.90
45643;DHT22;31358;46.008;11.144;2023-04-25T02:59:28;9.80;99.90
45643;DHT22;31358;46.008;11.144;2023-04-25T03:01:53;9.90;99.90
45643;DHT22;31358;46.008;11.144;2023-04-25T03:04:19;9.70;99.90
45643;DHT22;31358;46.008;11.144;2023-04-25T03:06:46;9.70;99.90
45643;DHT22;31358;46.008;11.144;2023-04-25T03:09:12;9.70;99.90
45643;DHT22;31358;46.008;11.144;2023-04-25T03:11:39;9.70;99.90
45643;DHT22;31358;46.008;11.144;2023-04-25T03:14:04;9.60;99.90
45643;DHT22;31358;46.008;11.144;2023-04-25T03:16:30;9.50;99.90
45643;DHT22;31358;46.008;11.144;2023-04-25T03:18:56;9.70;99.90
45643;DHT22;31358;46.008;11.144;2023-04-25T03:21:22;9.80;98.20
45643;DHT22;31358;46.008;11.144;2023-04-25T03:23:48;9.80;98.10
45643;DHT22;31358;46.008;11.144;2023-04-25T03:26:13;9.90;98.30
45643;DHT22;31358;46.008;11.144;2023-04-25T03:28:39;9.70;99.90
45643;DHT22;31358;46.008;11.144;2023-04-25T03:31:05;9.60;99.50
45643;DHT22;31358;46.008;11.144;2023-04-25T03:33:31;9.70;98.20
45643;DHT22;31358;46.008;11.144;2023-04-25T03:35:57;9.80;98.40
45643;DHT22;31358;46.008;11.144;2023-04-25T03:38:22;9.60;98.60
45643;DHT22;31358;46.008;11.144;2023-04-25T03:40:49;9.60;99.80
45643;DHT22;31358;46.008;11.144;2023-04-25T03:43:16;9.70;99.90
45643;DHT22;31358;46.008;11.144;2023-04-25T03:45:41;9.40;99.90
45643;DHT22;31358;46.008;11.144;2023-04-25T03:48:07;9.30;99.90
45643;DHT22;31358;46.008;11.144;2023-04-25T03:50:33;9.30;99.90
45643;DHT22;31358;46.008;11.144;2023-04-25T03:52:59;9.30;99.90
45643;DHT22;31358;46.008;11.144;2023-04-25T03:55:24;9.40;99.90
45643;DHT22;31358;46.008;11.144;2023-04-25T03:57:50;9.50;99.90
45643;DHT22;31358;46.008;11.144;2023-04-25T04:00:16;9.60;99.90
45643;DHT22;31358;46.008;11.144;2023-04-25T04:02:41;9.70;99.90
45643;DHT22;31358;46.008;11.144;2023-04-25T04:05:07;9.80;99.90
45643;DHT22;31358;46.008;11.144;2023-04-25T04:07:33;9.90;99.90
45643;DHT22;31358;46.008;11.144;2023-04-25T04:10:02;9.90;99.90
45643;DHT22;31358;46.008;11.144;2023-04-25T04:12:27;9.90;99.90
45643;DHT22;31358;46.008;11.144;2023-04-25T04:14:53;9.70;99.90
45643;DHT22;31358;46.008;11.144;2023-04-25T04:17:19;9.60;99.90
45643;DHT22;31358;46.008;11.144;2023-04-25T04:19:44;9.50;99.90
45643;DHT22;31358;46.008;11.144;2023-04-25T04:22:10;9.40;99.90
45643;DHT22;31358;46.008;11.144;2023-04-25T04:24:35;9.30;99.90
45643;DHT22;31358;46.008;11.144;2023-04-25T04:27:01;9.40;99.90
45643;DHT22;31358;46.008;11.144;2023-04-25T04:29:27;9.40;99.90
45643;DHT22;31358;46.008;11.144;2023-04-25T04:31:52;9.50;99.90
45643;DHT22;31358;46.008;11.144;2023-04-25T04:34:19;9.40;99.90
45643;DHT22;31358;46.008;11.144;2023-04-25T04:36:45;9.30;99.90
45643;DHT22;31358;46.008;11.144;2023-04-25T04:39:12;9.20;99.90
45643;DHT22;31358;46.008;11.144;2023-04-25T04:41:38;9.40;99.90
45643;DHT22;31358;46.008;11.144;2023-04-25T04:44:04;9.30;99.90
45643;DHT22;31358;46.008;11.144;2023-04-25T04:46:32;9.40;99.90
45643;DHT22;31358;46.008;11.144;2023-04-25T04:49:05;9.40;99.90
45643;DHT22;31358;46.008;11.144;2023-04-25T04:51:31;9.20;99.90
45643;DHT22;31358;46.008;11.144;2023-04-25T04:53:57;9.30;99.90
45643;DHT22;31358;46.008;11.144;2023-04-25T04:56:24;9.40;99.90
45643;DHT22;31358;46.008;11.144;2023-04-25T04:58:51;9.40;99.90
45643;DHT22;31358;46.008;11.144;2023-04-25T05:01:17;9.40;99.90
45643;DHT22;31358;46.008;11.144;2023-04-25T05:03:43;9.40;99.90
45643;DHT22;31358;46.008;11.144;2023-04-25T05:06:09;9.50;99.90
45643;DHT22;31358;46.008;11.144;2023-04-25T05:08:35;9.50;99.90
45643;DHT22;31358;46.008;11.144;2023-04-25T05:11:01;9.70;99.90
45643;DHT22;31358;46.008;11.144;2023-04-25T05:13:27;9.70;99.90
45643;DHT22;31358;46.008;11.144;2023-04-25T05:15:53;9.60;99.90
45643;DHT22;31358;46.008;11.144;2023-04-25T05:18:18;9.70;99.90
45643;DHT22;31358;46.008;11.144;2023-04-25T05:20:44;9.70;99.90
45643;DHT22;31358;46.008;11.144;2023-04-25T05:23:10;9.60;99.90
45643;DHT22;31358;46.008;11.144;2023-04-25T05:25:35;9.40;99.90
45643;DHT22;31358;46.008;11.144;2023-04-25T05:28:01;9.30;99.90
45643;DHT22;31358;46.008;11.144;2023-04-25T05:30:27;9.50;99.90
45643;DHT22;31358;46.008;11.144;2023-04-25T05:32:52;9.50;99.90
45643;DHT22;31358;46.008;11.144;2023-04-25T05:35:18;9.50;99.90
45643;DHT22;31358;46.008;11.144;2023-04-25T05:37:43;9.40;99.90
45643;DHT22;31358;46.008;11.144;2023-04-25T05:40:10;9.40;99.90
45643;DHT22;31358;46.008;11.144;2023-04-25T05:42:35;9.30;99.90
45643;DHT22;31358;46.008;11.144;2023-04-25T05:45:01;9.30;99.90
45643;DHT22;31358;46.008;11.144;2023-04-25T05:47:27;9.10;99.90
45643;DHT22;31358;46.008;11.144;2023-04-25T05:49:53;9.10;99.90
45643;DHT22;31358;46.008;11.144;2023-04-25T05:52:19;9.10;99.90
45643;DHT22;31358;46.008;11.144;2023-04-25T05:54:44;9.00;99.90
45643;DHT22;31358;46.008;11.144;2023-04-25T05:57:25;9.00;99.90
45643;DHT22;31358;46.008;11.144;2023-04-25T05:59:51;9.00;99.90
45643;DHT22;31358;46.008;11.144;2023-04-25T06:02:18;8.90;99.90
45643;DHT22;31358;46.008;11.144;2023-04-25T06:04:44;9.00;99.90
45643;DHT22;31358;46.008;11.144;2023-04-25T06:07:10;9.00;99.90
45643;DHT22;31358;46.008;11.144;2023-04-25T06:09:35;9.20;99.90
45643;DHT22;31358;46.008;11.144;2023-04-25T06:12:01;9.40;99.90
45643;DHT22;31358;46.008;11.144;2023-04-25T06:14:27;9.40;99.90
45643;DHT22;31358;46.008;11.144;2023-04-25T06:16:53;9.40;99.90
45643;DHT22;31358;46.008;11.144;2023-04-25T06:19:18;9.40;99.90
45643;DHT22;31358;46.008;11.144;2023-04-25T06:21:44;9.40;99.90
45643;DHT22;31358;46.008;11.144;2023-04-25T06:24:10;9.40;99.90
45643;DHT22;31358;46.008;11.144;2023-04-25T06:26:35;9.30;99.90
45643;DHT22;31358;46.008;11.144;2023-04-25T06:29:01;9.50;99.90
45643;DHT22;31358;46.008;11.144;2023-04-25T06:31:27;9.50;99.90
45643;DHT22;31358;46.008;11.144;2023-04-25T06:33:54;9.40;99.90
45643;DHT22;31358;46.008;11.144;2023-04-25T06:36:20;9.30;99.90
45643;DHT22;31358;46.008;11.144;2023-04-25T06:38:51;9.30;99.90
45643;DHT22;31358;46.008;11.144;2023-04-25T06:41:17;9.40;99.80
45643;DHT22;31358;46.008;11.144;2023-04-25T06:43:42;9.60;99.70
45643;DHT22;31358;46.008;11.144;2023-04-25T06:46:08;9.80;99.90
45643;DHT22;31358;46.008;11.144;2023-04-25T06:48:34;9.70;99.90
45643;DHT22;31358;46.008;11.144;2023-04-25T06:50:59;9.70;99.90
45643;DHT22;31358;46.008;11.144;2023-04-25T06:53:25;9.80;99.90
45643;DHT22;31358;46.008;11.144;2023-04-25T06:55:51;9.90;99.90
45643;DHT22;31358;46.008;11.144;2023-04-25T06:58:17;9.90;99.90
45643;DHT22;31358;46.008;11.144;2023-04-25T07:00:42;10.00;99.50
45643;DHT22;31358;46.008;11.144;2023-04-25T07:03:08;10.80;99.80
45643;DHT22;31358;46.008;11.144;2023-04-25T07:05:34;10.90;99.90
45643;DHT22;31358;46.008;11.144;2023-04-25T07:08:00;11.30;99.90
45643;DHT22;31358;46.008;11.144;2023-04-25T07:10:25;12.30;99.90
45643;DHT22;31358;46.008;11.144;2023-04-25T07:12:51;11.50;99.90
45643;DHT22;31358;46.008;11.144;2023-04-25T07:15:17;11.00;99.90
45643;DHT22;31358;46.008;11.144;2023-04-25T07:17:42;11.00;99.90
45643;DHT22;31358;46.008;11.144;2023-04-25T07:20:08;11.00;99.70
45643;DHT22;31358;46.008;11.144;2023-04-25T07:22:35;11.20;99.90
45643;DHT22;31358;46.008;11.144;2023-04-25T07:25:01;11.20;99.90
45643;DHT22;31358;46.008;11.144;2023-04-25T07:27:26;11.10;99.90
45643;DHT22;31358;46.008;11.144;2023-04-25T07:29:52;10.90;99.90
45643;DHT22;31358;46.008;11.144;2023-04-25T07:32:18;11.10;99.90
45643;DHT22;31358;46.008;11.144;2023-04-25T07:34:43;11.30;99.00
45643;DHT22;31358;46.008;11.144;2023-04-25T07:37:09;11.80;98.60
45643;DHT22;31358;46.008;11.144;2023-04-25T07:39:36;11.90;98.70
45643;DHT22;31358;46.008;11.144;2023-04-25T07:42:02;11.90;98.80
45643;DHT22;31358;46.008;11.144;2023-04-25T07:44:29;11.80;99.40
45643;DHT22;31358;46.008;11.144;2023-04-25T07:46:56;11.60;98.70
45643;DHT22;31358;46.008;11.144;2023-04-25T07:49:21;11.50;99.90
45643;DHT22;31358;46.008;11.144;2023-04-25T07:51:47;11.30;99.90
45643;DHT22;31358;46.008;11.144;2023-04-25T07:54:14;11.30;99.90
45643;DHT22;31358;46.008;11.144;2023-04-25T07:56:41;11.10;99.90
45643;DHT22;31358;46.008;11.144;2023-04-25T07:59:06;11.20;99.90
45643;DHT22;31358;46.008;11.144;2023-04-25T08:01:33;11.40;99.90
45643;DHT22;31358;46.008;11.144;2023-04-25T08:03:59;11.50;99.60
45643;DHT22;31358;46.008;11.144;2023-04-25T08:06:24;11.50;99.50
45643;DHT22;31358;46.008;11.144;2023-04-25T08:08:51;11.60;99.90
45643;DHT22;31358;46.008;11.144;2023-04-25T08:11:16;11.60;99.90
45643;DHT22;31358;46.008;11.144;2023-04-25T08:13:42;11.60;99.90
45643;DHT22;31358;46.008;11.144;2023-04-25T08:16:08;11.40;99.90
45643;DHT22;31358;46.008;11.144;2023-04-25T08:18:33;11.40;99.90
45643;DHT22;31358;46.008;11.144;2023-04-25T08:20:59;11.50;99.90
45643;DHT22;31358;46.008;11.144;2023-04-25T08:23:25;11.50;99.90
45643;DHT22;31358;46.008;11.144;2023-04-25T08:25:51;11.40;99.90
45643;DHT22;31358;46.008;11.144;2023-04-25T08:28:16;11.60;99.90
45643;DHT22;31358;46.008;11.144;2023-04-25T08:30:42;13.10;99.90
45643;DHT22;31358;46.008;11.144;2023-04-25T08:33:07;14.80;96.40
45643;DHT22;31358;46.008;11.144;2023-04-25T08:35:33;16.00;96.40
45643;DHT22;31358;46.008;11.144;2023-04-25T08:37:59;16.70;95.40
45643;DHT22;31358;46.008;11.144;2023-04-25T08:40:27;16.70;95.10
45643;DHT22;31358;46.008;11.144;2023-04-25T08:42:57;16.80;94.90
45643;DHT22;31358;46.008;11.144;2023-04-25T08:45:23;17.70;94.10
45643;DHT22;31358;46.008;11.144;2023-04-25T08:47:52;17.30;94.20
45643;DHT22;31358;46.008;11.144;2023-04-25T08:50:18;17.00;94.80
45643;DHT22;31358;46.008;11.144;2023-04-25T08:52:47;17.20;94.10
45643;DHT22;31358;46.008;11.144;2023-04-25T08:55:15;17.20;93.10
45643;DHT22;31358;46.008;11.144;2023-04-25T08:57:42;16.80;93.30
45643;DHT22;31358;46.008;11.144;2023-04-25T09:00:09;16.20;93.10
45643;DHT22;31358;46.008;11.144;2023-04-25T09:02:35;15.00;94.90
45643;DHT22;31358;46.008;11.144;2023-04-25T09:05:02;14.40;96.10
45643;DHT22;31358;46.008;11.144;2023-04-25T09:07:30;14.40;96.20
45643;DHT22;31358;46.008;11.144;2023-04-25T09:09:55;14.00;96.80
45643;DHT22;31358;46.008;11.144;2023-04-25T09:12:21;14.10;96.20
45643;DHT22;31358;46.008;11.144;2023-04-25T09:15:08;14.10;96.30
45643;DHT22;31358;46.008;11.144;2023-04-25T09:17:34;14.70;96.10
45643;DHT22;31358;46.008;11.144;2023-04-25T09:20:12;14.70;95.90
45643;DHT22;31358;46.008;11.144;2023-04-25T09:22:38;14.70;96.20
45643;DHT22;31358;46.008;11.144;2023-04-25T09:25:13;14.40;96.40
45643;DHT22;31358;46.008;11.144;2023-04-25T09:27:52;14.30;95.30
45643;DHT22;31358;46.008;11.144;2023-04-25T09:30:18;14.20;95.50
45643;DHT22;31358;46.008;11.144;2023-04-25T09:32:56;14.60;95.90
45643;DHT22;31358;46.008;11.144;2023-04-25T09:35:26;14.70;95.90
45643;DHT22;31358;46.008;11.144;2023-04-25T09:37:51;14.70;95.20
45643;DHT22;31358;46.008;11.144;2023-04-25T09:40:18;14.80;96.20
45643;DHT22;31358;46.008;11.144;2023-04-25T09:42:43;14.90;96.30
45643;DHT22;31358;46.008;11.144;2023-04-25T09:45:12;14.90;94.80
45643;DHT22;31358;46.008;11.144;2023-04-25T09:47:40;15.10;94.80
45643;DHT22;31358;46.008;11.144;2023-04-25T09:50:14;15.20;94.60
45643;DHT22;31358;46.008;11.144;2023-04-25T09:52:40;15.70;95.10
45643;DHT22;31358;46.008;11.144;2023-04-25T09:55:06;15.80;95.60
45643;DHT22;31358;46.008;11.144;2023-04-25T09:57:32;15.90;95.10
45643;DHT22;31358;46.008;11.144;2023-04-25T10:00:00;16.00;93.60
45643;DHT22;31358;46.008;11.144;2023-04-25T10:02:27;15.80;93.90
45643;DHT22;31358;46.008;11.144;2023-04-25T10:04:54;15.90;95.30
45643;DHT22;31358;46.008;11.144;2023-04-25T10:07:22;16.10;94.80
45643;DHT22;31358;46.008;11.144;2023-04-25T10:10:03;16.20;93.40
45643;DHT22;31358;46.008;11.144;2023-04-25T10:12:30;15.90;94.50
45643;DHT22;31358;46.008;11.144;2023-04-25T10:14:59;16.20;94.10
45643;DHT22;31358;46.008;11.144;2023-04-25T10:17:26;16.20;94.30
45643;DHT22;31358;46.008;11.144;2023-04-25T10:19:54;16.40;94.50
45643;DHT22;31358;46.008;11.144;2023-04-25T10:22:41;16.20;93.40
45643;DHT22;31358;46.008;11.144;2023-04-25T10:25:07;16.50;94.10
45643;DHT22;31358;46.008;11.144;2023-04-25T10:27:34;16.80;93.10
45643;DHT22;31358;46.008;11.144;2023-04-25T10:30:01;16.80;93.70
45643;DHT22;31358;46.008;11.144;2023-04-25T10:32:31;17.30;93.10
45643;DHT22;31358;46.008;11.144;2023-04-25T10:34:57;17.30;93.30
45643;DHT22;31358;46.008;11.144;2023-04-25T10:37:24;17.30;93.10
45643;DHT22;31358;46.008;11.144;2023-04-25T10:39:49;17.30;92.20
45643;DHT22;31358;46.008;11.144;2023-04-25T10:42:15;17.30;92.00
45643;DHT22;31358;46.008;11.144;2023-04-25T10:45:01;17.40;92.60
45643;DHT22;31358;46.008;11.144;2023-04-25T10:47:35;17.20;91.80
45643;DHT22;31358;46.008;11.144;2023-04-25T10:50:08;17.00;91.20
45643;DHT22;31358;46.008;11.144;2023-04-25T10:52:34;16.80;91.50
45643;DHT22;31358;46.008;11.144;2023-04-25T10:55:03;16.70;92.10
45643;DHT22;31358;46.008;11.144;2023-04-25T11:00:24;16.10;93.50
45643;DHT22;31358;46.008;11.144;2023-04-25T11:02:57;16.10;93.50
45643;DHT22;31358;46.008;11.144;2023-04-25T11:05:32;16.00;93.00
45643;DHT22;31358;46.008;11.144;2023-04-25T11:07:58;16.00;92.90
45643;DHT22;31358;46.008;11.144;2023-04-25T11:10:29;16.00;92.50
45643;DHT22;31358;46.008;11.144;2023-04-25T11:12:56;16.00;93.50
45643;DHT22;31358;46.008;11.144;2023-04-25T11:15:22;16.10;92.90
45643;DHT22;31358;46.008;11.144;2023-04-25T11:17:47;16.20;92.80
45643;DHT22;31358;46.008;11.144;2023-04-25T11:20:14;16.40;92.10
45643;DHT22;31358;46.008;11.144;2023-04-25T11:22:41;16.60;91.70
45643;DHT22;31358;46.008;11.144;2023-04-25T11:25:12;16.70;91.90
45643;DHT22;31358;46.008;11.144;2023-04-25T11:27:51;17.00;90.90
45643;DHT22;31358;46.008;11.144;2023-04-25T11:30:17;17.20;91.50
45643;DHT22;31358;46.008;11.144;2023-04-25T11:32:43;17.40;91.50
45643;DHT22;31358;46.008;11.144;2023-04-25T11:35:10;17.40;91.00
45643;DHT22;31358;46.008;11.144;2023-04-25T11:37:36;17.60;91.20
45643;DHT22;31358;46.008;11.144;2023-04-25T11:40:05;17.90;89.90
45643;DHT22;31358;46.008;11.144;2023-04-25T11:42:44;18.00;89.90
45643;DHT22;31358;46.008;11.144;2023-04-25T11:45:10;18.50;90.00
45643;DHT22;31358;46.008;11.144;2023-04-25T11:47:36;18.80;89.80
45643;DHT22;31358;46.008;11.144;2023-04-25T11:50:06;18.20;87.90
45643;DHT22;31358;46.008;11.144;2023-04-25T11:52:40;18.60;89.60
45643;DHT22;31358;46.008;11.144;2023-04-25T11:57:38;17.80;85.20
45643;DHT22;31358;46.008;11.144;2023-04-25T12:02:37;17.80;85.40
45643;DHT22;31358;46.008;11.144;2023-04-25T12:05:06;17.80;85.60
45643;DHT22;31358;46.008;11.144;2023-04-25T12:07:33;17.60;85.40
45643;DHT22;31358;46.008;11.144;2023-04-25T12:09:59;17.60;85.50
45643;DHT22;31358;46.008;11.144;2023-04-25T12:12:32;17.60;85.00
45643;DHT22;31358;46.008;11.144;2023-04-25T12:15:11;17.40;85.30
45643;DHT22;31358;46.008;11.144;2023-04-25T12:17:38;17.50;85.40
45643;DHT22;31358;46.008;11.144;2023-04-25T12:20:15;17.50;86.70
45643;DHT22;31358;46.008;11.144;2023-04-25T12:22:51;17.60;86.70
45643;DHT22;31358;46.008;11.144;2023-04-25T12:25:40;17.50;87.60
45643;DHT22;31358;46.008;11.144;2023-04-25T12:28:23;17.30;87.80
45643;DHT22;31358;46.008;11.144;2023-04-25T12:31:05;17.20;85.90
45643;DHT22;31358;46.008;11.144;2023-04-25T12:33:33;17.10;87.20
45643;DHT22;31358;46.008;11.144;2023-04-25T12:35:59;17.00;87.00
45643;DHT22;31358;46.008;11.144;2023-04-25T12:38:30;16.80;85.90
45643;DHT22;31358;46.008;11.144;2023-04-25T12:40:58;16.80;86.50
45643;DHT22;31358;46.008;11.144;2023-04-25T12:43:24;16.60;87.80
45643;DHT22;31358;46.008;11.144;2023-04-25T12:45:51;16.60;87.80
45643;DHT22;31358;46.008;11.144;2023-04-25T12:48:17;16.40;91.10
45643;DHT22;31358;46.008;11.144;2023-04-25T12:50:43;16.10;91.50
45643;DHT22;31358;46.008;11.144;2023-04-25T12:53:10;16.10;91.40
45643;DHT22;31358;46.008;11.144;2023-04-25T12:55:37;15.90;92.20
45643;DHT22;31358;46.008;11.144;2023-04-25T12:58:02;15.80;92.10
45643;DHT22;31358;46.008;11.144;2023-04-25T13:00:29;15.60;92.20
45643;DHT22;31358;46.008;11.144;2023-04-25T13:02:54;15.70;92.40
45643;DHT22;31358;46.008;11.144;2023-04-25T13:05:20;15.80;92.80
45643;DHT22;31358;46.008;11.144;2023-04-25T13:07:46;15.70;92.60
45643;DHT22;31358;46.008;11.144;2023-04-25T13:10:12;15.60;92.80
45643;DHT22;31358;46.008;11.144;2023-04-25T13:12:37;15.40;92.70
45643;DHT22;31358;46.008;11.144;2023-04-25T13:15:03;15.70;93.50
45643;DHT22;31358;46.008;11.144;2023-04-25T13:17:29;15.90;92.30
45643;DHT22;31358;46.008;11.144;2023-04-25T13:19:55;15.50;92.20
45643;DHT22;31358;46.008;11.144;2023-04-25T13:22:21;15.30;92.60
45643;DHT22;31358;46.008;11.144;2023-04-25T13:24:46;15.50;92.80
45643;DHT22;31358;46.008;11.144;2023-04-25T13:27:13;15.40;92.60
45643;DHT22;31358;46.008;11.144;2023-04-25T13:29:38;15.60;92.90
45643;DHT22;31358;46.008;11.144;2023-04-25T13:32:06;15.70;92.90
45643;DHT22;31358;46.008;11.144;2023-04-25T13:34:32;15.40;92.90
45643;DHT22;31358;46.008;11.144;2023-04-25T13:36:58;15.60;93.20
45643;DHT22;31358;46.008;11.144;2023-04-25T13:39:24;15.90;93.60
45643;DHT22;31358;46.008;11.144;2023-04-25T13:41:50;15.70;93.60
45643;DHT22;31358;46.008;11.144;2023-04-25T13:44:15;15.40;93.80
45643;DHT22;31358;46.008;11.144;2023-04-25T13:46:41;15.20;94.10
45643;DHT22;31358;46.008;11.144;2023-04-25T13:49:07;14.80;93.90
45643;DHT22;31358;46.008;11.144;2023-04-25T13:51:32;15.20;94.00
45643;DHT22;31358;46.008;11.144;2023-04-25T13:53:58;15.20;94.40
45643;DHT22;31358;46.008;11.144;2023-04-25T13:56:24;15.10;93.70
45643;DHT22;31358;46.008;11.144;2023-04-25T13:58:50;15.70;93.60
45643;DHT22;31358;46.008;11.144;2023-04-25T14:01:17;15.80;93.70
45643;DHT22;31358;46.008;11.144;2023-04-25T14:03:42;15.90;93.20
45643;DHT22;31358;46.008;11.144;2023-04-25T14:06:08;15.80;93.40
45643;DHT22;31358;46.008;11.144;2023-04-25T14:08:34;15.70;93.80
45643;DHT22;31358;46.008;11.144;2023-04-25T14:11:00;15.40;94.00
45643;DHT22;31358;46.008;11.144;2023-04-25T14:13:26;15.30;94.50
45643;DHT22;31358;46.008;11.144;2023-04-25T14:15:52;15.80;94.20
45643;DHT22;31358;46.008;11.144;2023-04-25T14:18:18;16.10;93.90
45643;DHT22;31358;46.008;11.144;2023-04-25T14:20:44;16.50;93.70
45643;DHT22;31358;46.008;11.144;2023-04-25T14:23:10;16.20;93.20
45643;DHT22;31358;46.008;11.144;2023-04-25T14:25:36;16.20;93.90
45643;DHT22;31358;46.008;11.144;2023-04-25T14:28:02;16.40;93.70
45643;DHT22;31358;46.008;11.144;2023-04-25T14:30:28;16.20;93.40
45643;DHT22;31358;46.008;11.144;2023-04-25T14:32:54;16.10;93.10
45643;DHT22;31358;46.008;11.144;2023-04-25T14:35:19;16.20;93.70
45643;DHT22;31358;46.008;11.144;2023-04-25T14:37:46;16.50;93.00
45643;DHT22;31358;46.008;11.144;2023-04-25T14:40:12;16.10;92.80
45643;DHT22;31358;46.008;11.144;2023-04-25T14:42:40;16.10;92.70
45643;DHT22;31358;46.008;11.144;2023-04-25T14:45:07;16.30;93.00
45643;DHT22;31358;46.008;11.144;2023-04-25T14:47:34;16.40;92.70
45643;DHT22;31358;46.008;11.144;2023-04-25T14:50:00;16.40;93.30
45643;DHT22;31358;46.008;11.144;2023-04-25T14:52:27;16.00;93.30
45643;DHT22;31358;46.008;11.144;2023-04-25T14:54:52;15.60;93.90
45643;DHT22;31358;46.008;11.144;2023-04-25T14:57:18;15.20;93.90
45643;DHT22;31358;46.008;11.144;2023-04-25T14:59:44;15.00;93.90
45643;DHT22;31358;46.008;11.144;2023-04-25T15:02:10;15.70;93.80
45643;DHT22;31358;46.008;11.144;2023-04-25T15:04:36;16.10;93.50
45643;DHT22;31358;46.008;11.144;2023-04-25T15:07:02;16.10;93.50
45643;DHT22;31358;46.008;11.144;2023-04-25T15:09:28;16.20;93.10
45643;DHT22;31358;46.008;11.144;2023-04-25T15:11:54;15.90;93.30
45643;DHT22;31358;46.008;11.144;2023-04-25T15:14:20;15.80;94.20
45643;DHT22;31358;46.008;11.144;2023-04-25T15:16:45;15.90;93.40
45643;DHT22;31358;46.008;11.144;2023-04-25T15:19:11;15.90;93.50
45643;DHT22;31358;46.008;11.144;2023-04-25T15:21:37;15.50;93.30
45643;DHT22;31358;46.008;11.144;2023-04-25T15:24:02;15.70;93.90
45643;DHT22;31358;46.008;11.144;2023-04-25T15:26:28;15.50;93.30
45643;DHT22;31358;46.008;11.144;2023-04-25T15:28:54;15.30;93.70